Time;durP1;ratioP1;P1;durP2;ratioP2;P2;SDS_P1;SDS_P2;PMS_P1;PMS_P2;Temp;Humidity;BMP_temperature;BMP_pressure;BME280_temperature;BME280_humidity;BME280_pressure;Samples;Min_cycle;Max_cycle;Signal;HPM_P1;HPM_P2
2022/09/14 00:01:33;;;;;;;10.18;6.40;;;;;;;20.88;54.16;92793.41;4988746;28;20030;-95
2022/09/14 00:04:06;;;;;;;13.80;7.32;;;;;;;20.87;54.04;92785.72;5009574;28;20049;-94
2022/09/14 00:06:33;;;;;;;9.30;6.68;;;;;;;20.88;54.05;92782.41;4994497;28;20479;-95
2022/09/14 00:09:00;;;;;;;11.63;6.85;;;;;;;20.87;54.26;92780.94;5002427;28;20041;-95
2022/09/14 00:11:26;;;;;;;9.30;6.60;;;;;;;20.89;54.03;92780.41;5000617;28;20045;-95
2022/09/14 00:13:52;;;;;;;9.65;6.53;;;;;;;20.88;54.12;92773.44;5005128;28;20042;-94
2022/09/14 00:16:19;;;;;;;7.55;6.32;;;;;;;20.89;54.12;92772.16;5024108;28;20462;-95
2022/09/14 00:18:49;;;;;;;9.98;5.85;;;;;;;20.87;54.10;92772.72;4983967;28;20030;-95
2022/09/14 00:21:16;;;;;;;10.02;7.03;;;;;;;20.88;54.09;92773.44;4997356;28;20060;-95
2022/09/14 00:23:49;;;;;;;10.77;6.88;;;;;;;20.87;54.18;92769.97;5018191;28;20030;-94
2022/09/14 00:26:17;;;;;;;11.38;6.93;;;;;;;20.88;54.22;92765.94;5013612;28;20033;-94
2022/09/14 00:28:44;;;;;;;9.70;6.25;;;;;;;20.87;54.21;92758.97;4981527;28;20121;-95
2022/09/14 00:31:10;;;;;;;8.88;6.40;;;;;;;20.87;54.12;92771.97;4965978;28;20113;-96
2022/09/14 00:33:38;;;;;;;9.30;6.32;;;;;;;20.87;54.07;92760.97;4983075;28;20455;-95
2022/09/14 00:36:04;;;;;;;8.45;5.80;;;;;;;20.87;54.10;92772.72;4997966;28;20041;-95
2022/09/14 00:38:30;;;;;;;11.60;7.20;;;;;;;20.86;54.23;92771.22;4983309;28;20049;-96
2022/09/14 00:41:00;;;;;;;9.32;6.05;;;;;;;20.87;54.03;92772.72;5019541;28;20042;-96
2022/09/14 00:43:25;;;;;;;11.25;7.40;;;;;;;20.89;54.06;92761.19;5002208;28;20042;-95
2022/09/14 00:45:51;;;;;;;7.78;5.82;;;;;;;20.85;54.27;92761.53;4998239;28;20125;-95
2022/09/14 00:48:17;;;;;;;9.35;6.38;;;;;;;20.86;54.05;92763.00;4993976;28;20054;-95
2022/09/14 00:50:42;;;;;;;8.75;5.88;;;;;;;20.86;54.31;92757.50;4996222;28;20038;-95
2022/09/14 00:53:08;;;;;;;7.80;5.32;;;;;;;20.88;54.19;92760.44;4998260;28;20476;-94
2022/09/14 00:55:34;;;;;;;8.05;5.88;;;;;;;20.87;54.09;92772.72;4997940;28;20034;-95
2022/09/14 00:58:00;;;;;;;9.50;6.55;;;;;;;20.87;53.90;92767.22;4981888;28;20404;-94
2022/09/14 01:00:27;;;;;;;7.88;5.70;;;;;;;20.85;54.17;92753.28;4993991;28;20040;-94
2022/09/14 01:02:53;;;;;;;11.00;6.25;;;;;;;20.87;53.98;92752.75;4984959;28;20117;-94
2022/09/14 01:05:19;;;;;;;7.78;6.43;;;;;;;20.87;53.90;92742.47;4999469;28;20381;-95
2022/09/14 01:08:21;;;;;;;6.57;5.38;;;;;;;20.86;54.08;92746.50;4990409;28;20032;-95
2022/09/14 01:10:56;;;;;;;7.75;5.95;;;;;;;20.86;54.03;92741.00;4999999;28;20034;-94
2022/09/14 01:13:49;;;;;;;7.60;5.75;;;;;;;20.87;54.19;92739.00;5013192;28;20030;-94
2022/09/14 01:16:24;;;;;;;8.38;5.95;;;;;;;20.84;53.95;92724.34;5013544;28;20038;-95
2022/09/14 01:18:53;;;;;;;8.63;5.40;;;;;;;20.85;54.30;92722.31;4981935;28;20049;-95
2022/09/14 01:21:23;;;;;;;8.45;6.13;;;;;;;20.85;54.44;92719.56;4981037;28;20038;-95
2022/09/14 01:24:28;;;;;;;7.28;4.90;;;;;;;20.85;54.26;92723.06;4979429;28;20065;-94
2022/09/14 01:27:15;;;;;;;7.07;5.22;;;;;;;20.87;54.19;92720.50;4978383;28;20039;-95
2022/09/14 01:29:57;;;;;;;9.10;5.47;;;;;;;20.84;54.12;92726.34;4995011;28;20042;-95
2022/09/14 01:32:27;;;;;;;7.43;5.38;;;;;;;20.84;54.25;92723.59;5001268;28;20057;-94
2022/09/14 01:35:14;;;;;;;7.30;5.27;;;;;;;20.85;54.23;92725.06;5000940;28;20084;-95
2022/09/14 01:37:47;;;;;;;8.65;5.53;;;;;;;20.85;54.12;92725.06;5016175;28;20362;-94
2022/09/14 01:40:17;;;;;;;8.93;5.35;;;;;;;20.84;53.89;92718.84;5001789;28;20037;-95
2022/09/14 01:42:44;;;;;;;7.72;5.45;;;;;;;20.85;54.16;92717.56;4982398;28;20031;-95
2022/09/14 01:45:16;;;;;;;7.18;5.70;;;;;;;20.85;54.09;92722.31;4996240;28;20448;-94
2022/09/14 01:47:47;;;;;;;7.30;5.38;;;;;;;20.85;54.18;92723.06;5001195;28;20042;-95
2022/09/14 01:50:19;;;;;;;6.90;5.38;;;;;;;20.84;54.27;92723.59;4985481;28;20030;-95
2022/09/14 01:52:51;;;;;;;7.20;4.78;;;;;;;20.85;54.26;92725.06;4981924;28;20038;-95
2022/09/14 01:55:26;;;;;;;8.18;5.35;;;;;;;20.84;54.18;92713.34;4983103;28;20426;-94
2022/09/14 01:57:58;;;;;;;9.27;5.50;;;;;;;20.84;54.13;92702.34;5003531;28;20034;-95
2022/09/14 02:00:24;;;;;;;7.82;5.10;;;;;;;20.84;54.15;92712.63;4986104;28;20045;-95
2022/09/14 02:02:57;;;;;;;8.13;5.25;;;;;;;20.85;54.45;92700.34;5003232;28;20033;-94
2022/09/14 02:05:33;;;;;;;9.30;5.35;;;;;;;20.85;54.24;92700.34;5016353;28;20081;-95
2022/09/14 02:07:59;;;;;;;8.13;5.50;;;;;;;20.85;54.26;92706.56;4996077;28;20121;-95
2022/09/14 02:10:24;;;;;;;6.43;5.30;;;;;;;20.83;54.32;92702.91;4983829;28;20117;-94
2022/09/14 02:12:51;;;;;;;8.55;5.43;;;;;;;20.83;54.26;92702.91;4981352;28;20043;-95
2022/09/14 02:15:17;;;;;;;5.50;4.68;;;;;;;20.84;54.20;92723.59;4978881;28;20045;-94
2022/09/14 02:17:42;;;;;;;9.98;5.07;;;;;;;20.84;54.19;92724.34;4982382;28;20068;-94
2022/09/14 02:20:13;;;;;;;7.57;5.65;;;;;;;20.85;54.12;92725.81;4976872;28;20037;-95
2022/09/14 02:22:39;;;;;;;7.18;5.13;;;;;;;20.85;54.28;92725.06;4985941;28;20480;-95
2022/09/14 02:25:05;;;;;;;6.25;4.80;;;;;;;20.85;54.25;92711.34;4999882;28;20077;-94
2022/09/14 02:27:31;;;;;;;6.45;4.72;;;;;;;20.84;54.13;92720.84;4997236;28;20038;-96
2022/09/14 02:29:57;;;;;;;6.85;4.53;;;;;;;20.85;54.26;92720.31;5001863;28;20041;-95
2022/09/14 02:32:28;;;;;;;6.88;4.97;;;;;;;20.84;54.20;92709.88;4983427;28;20046;-94
2022/09/14 02:35:00;;;;;;;6.28;4.35;;;;;;;20.85;54.24;92709.31;4997526;28;20038;-95
2022/09/14 02:37:30;;;;;;;7.60;4.18;;;;;;;20.83;54.12;92703.63;4980755;28;20034;-95
2022/09/14 02:40:05;;;;;;;6.57;4.63;;;;;;;20.86;54.37;92704.56;4993022;28;20042;-94
2022/09/14 02:42:44;;;;;;;6.97;4.88;;;;;;;20.83;54.33;92687.16;4997942;28;20399;-95
2022/09/14 02:45:28;;;;;;;5.97;4.47;;;;;;;20.84;54.25;92685.88;4999720;28;20069;-95
2022/09/14 02:47:58;;;;;;;5.90;4.22;;;;;;;20.83;54.37;92687.16;5018847;28;20058;-95
2022/09/14 02:50:35;;;;;;;6.68;4.57;;;;;;;20.85;54.23;92697.59;5002130;28;20549;-95
2022/09/14 02:53:04;;;;;;;7.13;5.07;;;;;;;20.85;54.25;92700.34;5017558;28;20349;-95
2022/09/14 02:55:33;;;;;;;5.90;4.70;;;;;;;20.83;54.20;92689.91;5012941;28;20081;-96
2022/09/14 02:58:10;;;;;;;5.93;4.63;;;;;;;20.82;54.20;92688.44;4999661;28;20057;-95
2022/09/14 03:00:39;;;;;;;7.18;4.75;;;;;;;20.83;54.46;92678.19;4999526;28;20045;-95
2022/09/14 03:03:05;;;;;;;4.68;4.18;;;;;;;20.83;53.94;92678.19;4998894;28;20071;-94
2022/09/14 03:05:31;;;;;;;6.20;4.63;;;;;;;20.83;54.35;92678.19;4984488;28;20048;-95
2022/09/14 03:07:57;;;;;;;6.63;4.00;;;;;;;20.83;54.21;92670.66;4999738;28;20115;-95
2022/09/14 03:10:24;;;;;;;5.82;4.10;;;;;;;20.82;54.20;92658.22;4981132;28;20054;-95
2022/09/14 03:12:51;;;;;;;6.80;4.10;;;;;;;20.82;54.32;92665.72;4998206;28;20042;-94
2022/09/14 03:15:17;;;;;;;7.55;4.55;;;;;;;20.83;54.32;92656.19;4981827;28;20500;-94
2022/09/14 03:17:45;;;;;;;6.22;4.50;;;;;;;20.82;54.17;92649.22;5000953;28;20064;-95
2022/09/14 03:20:12;;;;;;;5.25;4.22;;;;;;;20.83;54.09;92656.94;4982288;28;20096;-94
2022/09/14 03:22:37;;;;;;;7.15;4.05;;;;;;;20.82;54.44;92654.72;4982924;28;20026;-94
2022/09/14 03:25:03;;;;;;;6.60;4.88;;;;;;;20.82;54.07;92657.47;4998275;28;20042;-94
2022/09/14 03:27:29;;;;;;;4.90;4.18;;;;;;;20.82;54.16;92652.72;4993673;28;20030;-95
2022/09/14 03:29:55;;;;;;;7.00;4.55;;;;;;;20.83;54.02;92650.72;4980934;28;20088;-94
2022/09/14 03:32:20;;;;;;;5.65;4.13;;;;;;;20.83;54.21;92648.69;4980657;28;20050;-94
2022/09/14 03:34:46;;;;;;;6.70;4.35;;;;;;;20.83;54.25;92625.97;4974868;28;20042;-95
2022/09/14 03:37:12;;;;;;;5.10;4.10;;;;;;;20.84;54.05;92633.69;4945508;28;20042;-95
2022/09/14 03:39:37;;;;;;;6.07;4.72;;;;;;;20.82;54.12;92632.75;4960711;28;20368;-94
2022/09/14 03:42:04;;;;;;;4.70;3.88;;;;;;;20.82;54.01;92646.50;4951390;28;20042;-94
2022/09/14 03:44:35;;;;;;;6.93;4.45;;;;;;;20.82;54.13;92627.25;4974227;28;20046;-93
2022/09/14 03:47:02;;;;;;;7.10;3.58;;;;;;;20.81;54.46;92631.28;4929492;29;20043;-95
2022/09/14 03:49:27;;;;;;;5.47;3.50;;;;;;;20.83;54.08;92623.97;4932500;28;20103;-92
2022/09/14 03:51:53;;;;;;;5.07;3.85;;;;;;;20.85;54.15;92626.19;4936377;28;20054;-93
2022/09/14 03:54:21;;;;;;;5.95;4.07;;;;;;;20.86;54.27;92611.91;4984863;28;20053;-93
2022/09/14 03:56:47;;;;;;;5.75;3.78;;;;;;;20.86;53.89;92616.66;4974897;28;20050;-94
2022/09/14 03:59:12;;;;;;;5.65;3.90;;;;;;;20.88;54.15;92625.09;4962561;28;20038;-94
2022/09/14 04:01:40;;;;;;;6.10;4.15;;;;;;;20.86;54.10;92622.16;4957738;28;20521;-94
2022/09/14 04:04:08;;;;;;;6.63;3.78;;;;;;;20.87;53.97;92618.84;4949121;28;20080;-95
2022/09/14 04:06:33;;;;;;;5.78;3.60;;;;;;;20.86;54.06;92628.38;4970453;28;20095;-95
2022/09/14 04:09:00;;;;;;;5.90;3.60;;;;;;;20.87;53.98;92631.84;4960796;28;20054;-94
2022/09/14 04:11:25;;;;;;;8.60;3.80;;;;;;;20.87;53.88;92640.84;4957185;28;20050;-95
2022/09/14 04:13:51;;;;;;;7.03;3.47;;;;;;;20.82;53.57;92651.97;4966595;28;20045;-93
2022/09/14 04:16:17;;;;;;;12.20;3.65;;;;;;;20.78;53.80;92646.88;4994454;28;20041;-94
2022/09/14 04:18:43;;;;;;;8.50;4.22;;;;;;;20.76;54.11;92654.91;4997395;28;20061;-94
2022/09/14 04:21:19;;;;;;;11.75;4.78;;;;;;;20.74;53.79;92654.00;4984704;28;20084;-94
2022/09/14 04:23:45;;;;;;;11.32;4.35;;;;;;;20.72;54.65;92659.28;4975361;28;20045;-94
2022/09/14 04:26:13;;;;;;;8.43;4.05;;;;;;;20.72;54.62;92656.53;4980660;28;20041;-94
2022/09/14 04:28:39;;;;;;;8.95;4.57;;;;;;;20.69;54.40;92657.63;4999294;28;20034;-94
2022/09/14 04:31:04;;;;;;;25.13;4.70;;;;;;;20.69;54.70;92654.88;4995102;28;20037;-94
2022/09/14 04:33:31;;;;;;;9.65;3.58;;;;;;;20.70;54.79;92661.84;4980717;28;20129;-95
2022/09/14 04:36:01;;;;;;;3.88;3.47;;;;;;;20.69;54.55;92658.38;4982794;28;20087;-95
2022/09/14 04:38:30;;;;;;;9.87;3.23;;;;;;;20.71;54.49;92650.31;4952596;28;20051;-94
2022/09/14 04:40:58;;;;;;;4.75;3.30;;;;;;;20.66;54.89;92642.22;4901671;29;20130;-92
2022/09/14 04:43:24;;;;;;;9.18;3.42;;;;;;;20.66;54.89;92645.72;4856750;29;20077;-93
2022/09/14 04:45:50;;;;;;;9.77;4.75;;;;;;;20.68;55.50;92643.16;4866525;29;20060;-94
2022/09/14 04:48:15;;;;;;;12.48;4.93;;;;;;;20.66;55.13;92631.25;4884346;29;20072;-91
2022/09/14 04:50:42;;;;;;;16.63;4.05;;;;;;;20.70;55.27;92615.88;4900368;29;20036;-94
2022/09/14 04:53:08;;;;;;;18.25;6.78;;;;;;;20.66;55.46;92621.00;4879713;29;20054;-93
2022/09/14 04:55:36;;;;;;;15.45;5.95;;;;;;;20.70;55.38;92626.13;4889595;29;20256;-94
2022/09/14 04:58:01;;;;;;;42.53;12.27;;;;;;;20.66;55.45;92615.50;4913334;29;20172;-90
2022/09/14 05:00:27;;;;;;;48.30;13.10;;;;;;;20.62;55.56;92615.13;4895892;29;20906;-91
2022/09/14 05:02:52;;;;;;;27.35;10.68;;;;;;;20.62;55.64;92604.13;4860609;29;20042;-92
2022/09/14 05:05:20;;;;;;;36.28;14.00;;;;;;;20.62;55.59;92619.88;4846799;29;20033;-92
2022/09/14 05:07:46;;;;;;;31.73;13.02;;;;;;;20.57;55.65;92620.81;4863620;29;20041;-93
2022/09/14 05:10:12;;;;;;;36.40;12.10;;;;;;;20.58;55.80;92622.25;4908897;29;20039;-94
2022/09/14 05:12:37;;;;;;;23.63;10.68;;;;;;;20.57;55.80;92618.06;4938915;28;20155;-92
2022/09/14 05:15:04;;;;;;;29.98;12.13;;;;;;;20.56;56.01;92622.06;4934220;28;20050;-93
2022/09/14 05:17:33;;;;;;;38.28;12.95;;;;;;;20.57;56.01;92620.81;4941629;28;20042;-92
2022/09/14 05:19:58;;;;;;;20.42;10.32;;;;;;;20.61;56.05;92616.41;4936131;28;20062;-91
2022/09/14 05:22:24;;;;;;;22.65;11.43;;;;;;;20.57;56.27;92620.81;4935295;28;20054;-93
2022/09/14 05:24:49;;;;;;;40.00;14.07;;;;;;;20.55;56.35;92612.38;4953243;28;20423;-90
2022/09/14 05:27:15;;;;;;;31.35;12.05;;;;;;;20.56;56.56;92625.56;4936934;28;20050;-93
2022/09/14 05:29:40;;;;;;;61.95;24.92;;;;;;;20.55;56.12;92618.59;4916601;29;20042;-91
2022/09/14 05:32:06;;;;;;;61.97;25.92;;;;;;;20.55;56.34;92620.59;4914561;29;20095;-94
2022/09/14 05:34:31;;;;;;;61.45;20.58;;;;;;;20.55;56.42;92615.84;4970307;28;20043;-92
2022/09/14 05:36:57;;;;;;;40.60;13.35;;;;;;;20.54;55.99;92617.13;4964998;28;20046;-92
2022/09/14 05:39:23;;;;;;;38.40;14.93;;;;;;;20.53;56.54;92618.41;4963756;28;20046;-93
2022/09/14 05:41:49;;;;;;;27.42;11.93;;;;;;;20.53;56.68;92615.66;4944715;28;20051;-93
2022/09/14 05:44:15;;;;;;;28.55;12.48;;;;;;;20.54;56.83;92608.88;4976337;28;20056;-91
2022/09/14 05:46:40;;;;;;;20.13;9.85;;;;;;;20.55;56.33;92609.63;4956688;28;20035;-93
2022/09/14 05:49:05;;;;;;;16.35;9.30;;;;;;;20.52;57.26;92594.97;4991621;28;20042;-92
2022/09/14 05:51:31;;;;;;;19.05;8.63;;;;;;;20.50;57.55;92594.78;4955649;28;20053;-93
2022/09/14 05:54:10;;;;;;;17.58;8.77;;;;;;;20.50;57.37;92592.75;4929176;28;20067;-94
2022/09/14 05:56:35;;;;;;;30.17;9.77;;;;;;;20.49;57.74;92598.78;4943204;28;20046;-93
2022/09/14 05:59:01;;;;;;;28.92;8.82;;;;;;;20.51;57.35;92594.22;4940997;28;20035;-94
2022/09/14 06:01:32;;;;;;;26.67;9.30;;;;;;;20.53;57.27;92601.94;4933839;28;20118;-93
2022/09/14 06:04:01;;;;;;;28.15;9.77;;;;;;;20.52;57.62;92595.69;4928983;29;20070;-94
2022/09/14 06:06:28;;;;;;;114.00;29.65;;;;;;;20.60;57.12;92584.72;4921635;28;20042;-90
2022/09/14 06:09:15;;;;;;;56.00;23.65;;;;;;;20.59;56.86;92583.25;4922431;28;20094;-94
2022/09/14 06:11:42;;;;;;;52.53;21.35;;;;;;;20.64;56.51;92596.09;4918450;29;20542;-96
2022/09/14 06:14:23;;;;;;;55.13;23.52;;;;;;;20.67;56.65;92608.75;4901303;29;20087;-93
2022/09/14 06:16:56;;;;;;;43.50;19.95;;;;;;;20.68;56.54;92601.22;4905869;29;20020;-94
2022/09/14 06:19:25;;;;;;;40.88;19.52;;;;;;;20.68;56.35;92596.47;5010634;23;20030;-94
2022/09/14 06:21:51;;;;;;;42.72;19.48;;;;;;;20.71;56.21;92589.88;4977401;28;20037;-94
2022/09/14 06:24:19;;;;;;;45.60;18.70;;;;;;;20.74;56.27;92588.81;5035909;23;20073;-94
2022/09/14 06:26:45;;;;;;;48.30;20.35;;;;;;;20.77;56.30;92584.22;5007831;22;20137;-92
2022/09/14 06:29:10;;;;;;;81.63;26.10;;;;;;;20.75;55.73;92590.28;4944245;28;20066;-93
2022/09/14 06:31:45;;;;;;;64.03;21.40;;;;;;;20.76;55.92;92583.50;4958020;28;20089;-93
2022/09/14 06:34:11;;;;;;;85.78;43.75;;;;;;;20.74;55.89;92586.06;4965694;28;20057;-93
2022/09/14 06:36:37;;;;;;;85.57;43.25;;;;;;;20.77;55.94;92592.47;4985344;28;20034;-93
2022/09/14 06:39:02;;;;;;;87.10;41.40;;;;;;;20.81;55.96;92579.09;4996022;28;20045;-93
2022/09/14 06:41:31;;;;;;;99.70;38.40;;;;;;;20.81;55.95;92576.34;4996386;28;20057;-96
2022/09/14 06:43:58;;;;;;;110.82;45.33;;;;;;;20.79;56.05;92570.66;4976007;28;20121;-92
2022/09/14 06:46:27;;;;;;;107.57;43.17;;;;;;;20.77;56.07;92578.75;4947176;28;20042;-94
2022/09/14 06:49:11;;;;;;;125.30;47.88;;;;;;;20.78;55.86;92582.97;4981953;28;20050;-94
2022/09/14 06:51:50;;;;;;;97.45;41.33;;;;;;;20.79;55.88;92592.63;4955536;28;20070;-92
2022/09/14 06:54:17;;;;;;;113.75;43.58;;;;;;;20.78;55.93;92589.19;5026047;23;20053;-95
2022/09/14 06:56:43;;;;;;;112.03;39.70;;;;;;;20.81;56.01;92601.81;5007546;28;20559;-92
2022/09/14 06:59:11;;;;;;;90.97;36.75;;;;;;;20.84;55.69;92600.72;5014993;28;20101;-93
2022/09/14 07:01:44;;;;;;;84.13;37.38;;;;;;;20.84;55.94;92599.97;5001657;28;20037;-92
2022/09/14 07:04:10;;;;;;;100.80;36.28;;;;;;;20.83;55.78;92610.25;4974664;28;20096;-92
2022/09/14 07:06:46;;;;;;;106.10;39.38;;;;;;;20.83;55.81;92606.75;4985999;28;20096;-91
2022/09/14 07:09:11;;;;;;;106.22;38.03;;;;;;;20.83;55.84;92609.50;4979657;28;20049;-89
2022/09/14 07:11:37;;;;;;;82.47;35.28;;;;;;;20.83;55.73;92607.50;5014955;28;20056;-90
2022/09/14 07:14:03;;;;;;;65.55;34.22;;;;;;;20.83;55.94;92620.50;5004514;28;20063;-91
2022/09/14 07:16:29;;;;;;;77.13;34.50;;;;;;;20.84;55.87;92635.69;4990124;28;20048;-93
2022/09/14 07:18:57;;;;;;;65.90;32.50;;;;;;;20.84;56.08;92630.94;5024861;28;20042;-91
2022/09/14 07:21:22;;;;;;;76.85;35.50;;;;;;;20.83;56.03;92645.22;5003992;28;20075;-91
2022/09/14 07:23:57;;;;;;;81.30;33.00;;;;;;;20.85;55.94;92642.66;4996709;28;20092;-90
2022/09/14 07:26:25;;;;;;;77.15;32.83;;;;;;;20.86;56.05;92644.88;5005031;28;20038;-89
2022/09/14 07:29:17;;;;;;;86.82;35.53;;;;;;;20.87;55.96;92645.59;4975077;28;20034;-94
2022/09/14 07:31:47;;;;;;;77.93;33.42;;;;;;;20.87;55.91;92631.84;4953130;28;20110;-94
2022/09/14 07:34:13;;;;;;;81.88;34.20;;;;;;;20.88;55.78;92636.81;4944772;28;20422;-92
2022/09/14 07:36:38;;;;;;;75.30;34.00;;;;;;;20.85;55.75;92637.91;4925907;28;20089;-90
2022/09/14 07:39:05;;;;;;;120.55;40.67;;;;;;;20.86;55.90;92644.88;4927975;28;20057;-94
2022/09/14 07:41:35;;;;;;;98.05;37.28;;;;;;;20.86;55.86;92638.63;4959351;28;20142;-93
2022/09/14 07:44:02;;;;;;;106.38;37.33;;;;;;;20.88;55.92;92642.31;4919227;28;20106;-92
2022/09/14 07:46:29;;;;;;;117.15;42.20;;;;;;;20.90;55.91;92636.25;4929241;28;20121;-91
2022/09/14 07:48:55;;;;;;;126.03;44.30;;;;;;;20.90;55.84;92614.28;4953740;28;20098;-92
2022/09/14 07:51:22;;;;;;;99.45;43.63;;;;;;;20.89;56.09;92621.06;4926397;28;20049;-88
2022/09/14 07:53:47;;;;;;;113.05;43.55;;;;;;;20.91;56.04;92628.75;4942752;28;20589;-93
2022/09/14 07:56:15;;;;;;;106.20;47.55;;;;;;;20.91;56.08;92615.75;4935057;28;20043;-94
2022/09/14 07:58:41;;;;;;;123.57;50.17;;;;;;;20.94;55.78;92605.69;4955728;28;20064;-91
2022/09/14 08:01:08;;;;;;;107.78;54.03;;;;;;;20.91;56.13;92612.28;4924991;28;20569;-90
2022/09/14 08:03:35;;;;;;;146.02;70.88;;;;;;;20.91;56.02;92621.25;4976078;28;20053;-92
2022/09/14 08:06:05;;;;;;;165.55;88.28;;;;;;;20.95;55.48;92585.91;4971794;28;20057;-92
2022/09/14 08:08:31;;;;;;;136.32;67.03;;;;;;;20.93;56.61;92585.00;4981392;28;20037;-90
2022/09/14 08:11:06;;;;;;;152.85;72.07;;;;;;;20.94;56.18;92597.44;4990164;28;20397;-92
2022/09/14 08:13:33;;;;;;;157.20;86.05;;;;;;;20.94;55.99;92589.22;4987281;28;20125;-91
2022/09/14 08:15:59;;;;;;;173.30;87.60;;;;;;;20.95;55.85;92585.91;5022035;28;20115;-94
2022/09/14 08:18:25;;;;;;;213.27;99.00;;;;;;;20.98;55.76;92593.06;4997917;28;20046;-92
2022/09/14 08:20:52;;;;;;;186.25;100.82;;;;;;;20.93;56.20;92585.00;4962268;28;20042;-93
2022/09/14 08:23:17;;;;;;;180.20;95.07;;;;;;;20.94;55.92;92595.44;4966594;28;20041;-92
2022/09/14 08:25:43;;;;;;;223.40;110.68;;;;;;;20.97;55.91;92594.34;4959508;28;20157;-91
2022/09/14 08:28:08;;;;;;;210.85;105.55;;;;;;;20.96;56.16;92597.63;4946178;28;20045;-92
2022/09/14 08:30:34;;;;;;;189.65;84.63;;;;;;;20.97;56.05;92597.09;4974885;28;20034;-91
2022/09/14 08:32:59;;;;;;;197.63;95.10;;;;;;;21.00;56.07;92604.22;4996463;28;20088;-90
2022/09/14 08:35:24;;;;;;;188.18;90.18;;;;;;;20.99;55.94;92600.03;4982862;28;20038;-92
2022/09/14 08:37:52;;;;;;;198.05;98.40;;;;;;;20.98;56.06;92603.31;4957247;28;20038;-94
2022/09/14 08:40:18;;;;;;;189.57;93.72;;;;;;;20.98;55.90;92597.81;4945413;28;20042;-93
2022/09/14 08:42:43;;;;;;;150.15;72.70;;;;;;;20.98;56.23;92606.06;4962910;28;20052;-93
2022/09/14 08:45:11;;;;;;;114.68;59.17;;;;;;;20.96;55.79;92605.88;4952945;28;20047;-89
2022/09/14 08:47:38;;;;;;;112.90;51.75;;;;;;;20.96;55.72;92609.38;4982527;28;20113;-89
2022/09/14 08:50:17;;;;;;;107.22;45.65;;;;;;;20.97;55.91;92623.84;4967640;28;20042;-92
2022/09/14 08:52:53;;;;;;;106.82;48.85;;;;;;;20.97;55.85;92621.09;4986224;28;20057;-90
2022/09/14 08:55:33;;;;;;;120.10;57.88;;;;;;;20.96;55.92;92625.84;4975603;28;20394;-93
2022/09/14 08:58:23;;;;;;;134.65;64.25;;;;;;;20.96;55.88;92625.84;5021040;28;20054;-92
2022/09/14 09:00:52;;;;;;;127.45;56.45;;;;;;;20.98;55.90;92617.78;5001903;28;20056;-94
2022/09/14 09:03:27;;;;;;;113.07;57.28;;;;;;;20.97;55.86;92616.31;4998003;28;20038;-93
2022/09/14 09:06:02;;;;;;;124.85;59.38;;;;;;;20.99;55.83;92600.03;4972815;28;20080;-93
2022/09/14 09:08:28;;;;;;;152.00;68.68;;;;;;;21.01;55.97;92591.94;5008216;28;20073;-93
2022/09/14 09:10:53;;;;;;;235.50;98.57;;;;;;;21.00;55.75;92598.72;5002547;28;20045;-92
2022/09/14 09:13:34;;;;;;;196.32;85.88;;;;;;;21.02;55.87;92600.94;4990628;28;20037;-92
2022/09/14 09:16:04;;;;;;;181.10;87.30;;;;;;;21.02;55.84;92587.19;5002022;28;20038;-93
2022/09/14 09:18:48;;;;;;;190.73;91.07;;;;;;;21.01;55.89;92599.47;4980722;28;20034;-93
2022/09/14 09:21:16;;;;;;;175.80;80.55;;;;;;;21.03;55.75;92580.41;4992596;28;20053;-93
2022/09/14 09:23:42;;;;;;;176.65;84.60;;;;;;;21.05;55.88;92595.06;4993630;28;20051;-94
2022/09/14 09:26:08;;;;;;;149.48;76.57;;;;;;;21.04;55.82;92593.59;4992932;28;20112;-94
2022/09/14 09:28:34;;;;;;;157.80;83.28;;;;;;;21.04;55.59;92596.34;5010231;28;20069;-92
2022/09/14 09:31:04;;;;;;;151.07;79.38;;;;;;;21.08;56.15;92599.47;4983370;28;20041;-94
2022/09/14 09:33:32;;;;;;;163.63;81.15;;;;;;;21.10;55.62;92591.41;5003132;28;20486;-93
2022/09/14 09:35:57;;;;;;;158.15;76.95;;;;;;;21.09;55.76;92595.44;5025591;28;20041;-93
2022/09/14 09:38:27;;;;;;;199.32;92.50;;;;;;;21.09;55.62;92598.19;4979127;28;20056;-94
2022/09/14 09:40:57;;;;;;;177.90;84.60;;;;;;;21.09;55.56;92600.94;4974916;28;20049;-92
2022/09/14 09:43:23;;;;;;;188.02;91.50;;;;;;;21.13;55.69;92595.09;4968725;28;20042;-93
2022/09/14 09:46:02;;;;;;;167.82;81.57;;;;;;;21.13;55.88;92603.34;4960728;28;20042;-94
2022/09/14 09:48:37;;;;;;;202.90;97.95;;;;;;;21.11;55.52;92603.88;4943146;28;20034;-94
2022/09/14 09:51:09;;;;;;;189.15;87.75;;;;;;;21.13;55.61;92614.31;4949889;28;20051;-92
2022/09/14 09:53:47;;;;;;;184.07;91.47;;;;;;;21.11;55.88;92611.41;4924625;29;20204;-94
2022/09/14 09:56:18;;;;;;;158.10;80.30;;;;;;;21.12;55.89;92619.09;4934544;28;20055;-92
2022/09/14 09:58:50;;;;;;;186.40;91.28;;;;;;;21.15;55.61;92612.50;4917225;28;20077;-91
2022/09/14 10:01:27;;;;;;;156.75;78.38;;;;;;;21.13;55.87;92611.56;4962341;28;20043;-91
2022/09/14 10:04:07;;;;;;;195.25;92.78;;;;;;;21.10;55.68;92613.41;4946784;28;20145;-93
2022/09/14 10:06:46;;;;;;;168.38;85.82;;;;;;;21.13;55.86;92608.84;4959935;28;20135;-94
2022/09/14 10:09:18;;;;;;;154.55;74.40;;;;;;;21.13;55.66;92608.84;4943569;23;20050;-91
2022/09/14 10:11:44;;;;;;;143.68;69.63;;;;;;;21.11;55.61;92608.66;4997916;28;20053;-93
2022/09/14 10:14:27;;;;;;;202.65;118.97;;;;;;;21.12;56.38;92610.13;4981523;28;20074;-92
2022/09/14 10:16:52;;;;;;;385.13;321.58;;;;;;;21.14;56.06;92599.31;4974088;28;20038;-93
2022/09/14 10:19:21;;;;;;;265.75;187.18;;;;;;;21.15;56.06;92604.25;4994260;28;20123;-91
2022/09/14 10:22:12;;;;;;;152.68;78.30;;;;;;;21.13;55.92;92601.31;5004641;28;20045;-91
2022/09/14 10:24:39;;;;;;;125.22;68.32;;;;;;;21.17;55.95;92601.69;5002130;28;20065;-89
2022/09/14 10:27:30;;;;;;;104.93;59.60;;;;;;;21.15;55.79;92603.53;5006731;28;20050;-90
2022/09/14 10:29:56;;;;;;;190.65;133.60;;;;;;;21.16;56.17;92600.22;4988326;28;20041;-91
2022/09/14 10:32:24;;;;;;;129.70;76.03;;;;;;;21.17;55.89;92600.97;4992219;28;20543;-91
2022/09/14 10:34:50;;;;;;;148.13;84.20;;;;;;;21.18;55.71;92597.66;4998755;28;20038;-89
2022/09/14 10:37:23;;;;;;;125.38;69.55;;;;;;;21.18;55.54;92591.44;4983101;28;20034;-90
2022/09/14 10:40:15;;;;;;;122.35;62.60;;;;;;;21.17;55.70;92589.97;4999753;28;20064;-89
2022/09/14 10:42:58;;;;;;;221.57;171.75;;;;;;;21.18;55.79;92586.69;4999457;28;20041;-90
2022/09/14 10:45:29;;;;;;;118.82;72.22;;;;;;;21.18;55.71;92583.19;4994719;28;20654;-91
2022/09/14 10:48:18;;;;;;;92.75;53.60;;;;;;;21.18;55.76;92596.94;4963079;28;20103;-89
2022/09/14 10:50:56;;;;;;;92.90;53.80;;;;;;;21.19;55.69;92579.16;4999758;28;20034;-91
2022/09/14 10:53:31;;;;;;;85.93;49.92;;;;;;;21.16;55.87;92583.00;4980333;28;20038;-90
2022/09/14 10:56:04;;;;;;;89.03;51.17;;;;;;;21.17;55.60;92576.97;4983886;28;20033;-91
2022/09/14 10:58:36;;;;;;;112.07;59.63;;;;;;;21.20;55.45;92578.66;5022544;28;20041;-92
2022/09/14 11:01:24;;;;;;;112.95;54.33;;;;;;;21.17;56.01;92574.22;5039323;28;20376;-91
2022/09/14 11:04:14;;;;;;;137.93;67.93;;;;;;;21.15;55.89;92576.03;5003470;28;20037;-92
2022/09/14 11:07:04;;;;;;;149.93;73.05;;;;;;;21.16;56.02;92567.25;5020880;28;20048;-91
2022/09/14 11:09:36;;;;;;;126.38;60.38;;;;;;;21.18;56.14;92572.19;4979356;28;20278;-91
2022/09/14 11:12:08;;;;;;;131.57;62.63;;;;;;;21.19;55.61;92566.16;4992422;28;20064;-91
2022/09/14 11:14:47;;;;;;;132.10;64.97;;;;;;;21.22;55.68;92558.13;4971977;28;20175;-91
2022/09/14 11:17:36;;;;;;;165.05;88.53;;;;;;;21.18;56.23;92550.94;4995325;28;20073;-93
2022/09/14 11:20:14;;;;;;;182.80;90.82;;;;;;;21.22;55.38;92553.31;4996073;28;20115;-92
2022/09/14 11:22:52;;;;;;;233.85;96.97;;;;;;;21.24;55.43;92547.28;5024500;28;20029;-90
2022/09/14 11:25:29;;;;;;;207.48;89.82;;;;;;;21.28;55.63;92544.91;5014496;28;20052;-91
2022/09/14 11:27:57;;;;;;;154.68;78.95;;;;;;;21.22;55.83;92542.34;4983241;28;20061;-90
2022/09/14 11:30:27;;;;;;;139.93;70.60;;;;;;;21.23;56.11;92537.56;4996152;28;20045;-89
2022/09/14 11:33:03;;;;;;;136.60;62.92;;;;;;;21.19;56.41;92524.94;4997145;28;20037;-90
2022/09/14 11:35:28;;;;;;;114.03;57.35;;;;;;;21.24;56.61;92522.53;4997111;28;20068;-89